Time;durP1;ratioP1;P1;durP2;ratioP2;P2;SDS_P1;SDS_P2;PMS_P1;PMS_P2;Temp;Humidity;BMP_temperature;BMP_pressure;BME280_temperature;BME280_humidity;BME280_pressure;Samples;Min_cycle;Max_cycle;Signal;HPM_P1;HPM_P2
2021/12/22 00:02:17;;;;;;;4.63;1.47;;;;;;;-8.39;68.49;99842.64;1659264;85;20895;-51
2021/12/22 00:04:44;;;;;;;6.17;2.20;;;;;;;-8.39;68.59;99850.47;1661556;85;20919;-52
2021/12/22 00:07:11;;;;;;;7.07;1.97;;;;;;;-8.39;68.42;99852.20;1661311;85;21104;-51
2021/12/22 00:09:38;;;;;;;3.23;1.30;;;;;;;-8.42;68.51;99843.43;1656347;85;21082;-52
2021/12/22 00:12:05;;;;;;;6.33;1.60;;;;;;;-8.47;68.45;99850.68;1656790;85;21116;-51
2021/12/22 00:14:32;;;;;;;4.27;1.60;;;;;;;-8.51;68.44;99854.06;1660068;85;20959;-50
2021/12/22 00:16:58;;;;;;;10.07;2.10;;;;;;;-8.58;68.50;99857.30;1663680;85;20947;-51
2021/12/22 00:19:25;;;;;;;7.60;2.03;;;;;;;-8.60;68.50;99859.89;1656364;85;21098;-53
2021/12/22 00:21:51;;;;;;;6.83;2.10;;;;;;;-8.65;68.40;99863.19;1654947;83;21146;-52
2021/12/22 00:24:17;;;;;;;6.60;1.67;;;;;;;-8.72;68.44;99860.82;1658963;85;21162;-51
2021/12/22 00:26:43;;;;;;;9.07;2.40;;;;;;;-8.78;68.48;99864.98;1653495;84;21093;-51
2021/12/22 00:29:12;;;;;;;10.80;2.23;;;;;;;-8.86;68.48;99862.14;1658656;85;21118;-53
2021/12/22 00:31:44;;;;;;;10.83;2.50;;;;;;;-8.90;68.57;99870.70;1656966;85;21406;-53
2021/12/22 00:34:16;;;;;;;9.17;2.20;;;;;;;-8.97;68.60;99864.41;1665526;84;21397;-52
2021/12/22 00:36:39;;;;;;;6.80;2.07;;;;;;;-9.00;68.68;99866.91;1665819;84;21630;-52
2021/12/22 00:39:05;;;;;;;10.23;2.60;;;;;;;-9.03;68.74;99873.36;1666072;84;21555;-52
2021/12/22 00:41:31;;;;;;;6.77;2.23;;;;;;;-9.08;68.60;99874.03;1662655;84;21133;-51
2021/12/22 00:43:58;;;;;;;10.33;2.83;;;;;;;-9.14;68.55;99873.44;1662575;84;21189;-51
2021/12/22 00:46:24;;;;;;;5.33;2.10;;;;;;;-9.21;68.72;99871.06;1666571;84;21124;-51
2021/12/22 00:48:51;;;;;;;10.97;2.77;;;;;;;-9.23;68.72;99879.66;1663354;84;21137;-51
2021/12/22 00:51:18;;;;;;;9.20;2.83;;;;;;;-9.26;68.83;99887.37;1667251;84;21531;-52
2021/12/22 00:53:44;;;;;;;13.90;3.77;;;;;;;-9.28;68.84;99884.73;1665117;84;22355;-52
2021/12/22 00:56:11;;;;;;;19.47;5.40;;;;;;;-9.31;68.82;99887.23;1666659;84;21780;-51
2021/12/22 00:58:37;;;;;;;12.83;5.80;;;;;;;-9.35;68.99;99889.67;1664227;84;22443;-52
2021/12/22 01:01:03;;;;;;;8.43;4.67;;;;;;;-9.36;68.99;99889.23;1666893;84;21063;-50
2021/12/22 01:03:34;;;;;;;17.10;5.87;;;;;;;-9.37;69.01;99890.95;1678702;83;21519;-52
2021/12/22 01:05:59;;;;;;;11.73;4.43;;;;;;;-9.38;69.10;99896.11;1685003;83;21148;-51
2021/12/22 01:08:26;;;;;;;12.53;5.53;;;;;;;-9.41;69.05;99894.28;1687478;83;21149;-52
2021/12/22 01:10:53;;;;;;;11.50;4.40;;;;;;;-9.45;69.07;99896.33;1688365;83;21058;-50
2021/12/22 01:13:19;;;;;;;10.33;3.47;;;;;;;-9.48;69.03;99892.73;1683466;83;21058;-52
2021/12/22 01:15:45;;;;;;;9.37;3.50;;;;;;;-9.54;69.04;99892.11;1683853;83;21086;-51
2021/12/22 01:18:15;;;;;;;9.67;3.20;;;;;;;-9.58;69.07;99895.44;1685284;83;21853;-51
2021/12/22 01:23:20;;;;;;;10.47;3.30;;;;;;;-9.67;69.09;99899.03;1686733;83;21042;-50
2021/12/22 01:25:48;;;;;;;9.37;2.70;;;;;;;-9.71;69.19;99905.88;1686566;83;21207;-52
2021/12/22 01:28:16;;;;;;;12.57;2.83;;;;;;;-9.71;69.25;99907.59;1729278;81;20942;-51
2021/12/22 01:30:44;;;;;;;8.63;2.83;;;;;;;-9.72;69.22;99908.01;1729540;81;20908;-52
2021/12/22 01:33:10;;;;;;;6.30;2.83;;;;;;;-9.72;69.22;99901.91;1729003;81;21009;-52
2021/12/22 01:35:37;;;;;;;6.83;2.37;;;;;;;-9.75;69.16;99906.59;1712635;81;21121;-51
2021/12/22 01:38:04;;;;;;;9.17;3.10;;;;;;;-9.75;69.14;99914.81;1715673;82;20923;-52
2021/12/22 01:40:33;;;;;;;11.63;3.00;;;;;;;-9.76;69.18;99913.04;1713432;82;21058;-51
2021/12/22 01:43:01;;;;;;;9.43;3.10;;;;;;;-9.75;69.08;99922.63;1707662;82;21117;-51
2021/12/22 01:51:45;;;;;;;6.40;2.23;;;;;;;-9.76;68.96;99923.46;1710860;82;21456;-50
2021/12/22 01:54:27;;;;;;;6.57;1.90;;;;;;;-9.80;68.96;99926.39;1710161;82;21050;-50
2021/12/22 01:56:50;;;;;;;8.50;1.73;;;;;;;-9.80;69.03;99933.32;1709849;81;22062;-49
2021/12/22 01:59:16;;;;;;;8.00;2.23;;;;;;;-9.81;69.16;99935.45;1712297;82;21945;-49
2021/12/22 02:01:43;;;;;;;8.57;2.27;;;;;;;-9.83;69.20;99941.02;1712085;82;21385;-50
2021/12/22 02:04:12;;;;;;;5.53;1.43;;;;;;;-9.85;69.25;99941.37;1711839;81;20904;-50
2021/12/22 02:06:41;;;;;;;6.20;1.73;;;;;;;-9.87;69.30;99940.45;1709913;82;21172;-50
2021/12/22 02:09:09;;;;;;;6.23;1.90;;;;;;;-9.87;69.38;99941.34;1711464;82;22240;-50
2021/12/22 02:11:35;;;;;;;10.53;2.90;;;;;;;-9.87;69.41;99948.27;1709225;82;21184;-50
2021/12/22 02:14:06;;;;;;;6.17;2.00;;;;;;;-9.89;69.40;99941.70;1707427;82;21145;-49
2021/12/22 02:16:36;;;;;;;6.03;2.03;;;;;;;-9.90;69.47;99943.83;1708650;82;21058;-50
2021/12/22 02:19:01;;;;;;;10.03;3.90;;;;;;;-9.91;69.49;99937.25;1713952;82;21879;-50
2021/12/22 02:21:31;;;;;;;8.63;4.00;;;;;;;-9.92;69.52;99935.48;1710503;82;21484;-50
2021/12/22 02:23:59;;;;;;;9.97;3.30;;;;;;;-9.94;69.59;99933.70;1716219;82;20900;-49
2021/12/22 02:26:35;;;;;;;8.77;3.20;;;;;;;-9.93;69.63;99930.68;1712892;82;21445;-50
2021/12/22 02:29:01;;;;;;;8.07;2.47;;;;;;;-9.92;69.61;99935.48;1712176;82;21737;-49
2021/12/22 02:31:22;;;;;;;11.37;2.97;;;;;;;-9.92;69.45;99932.87;1711546;82;20923;-50
2021/12/22 02:33:50;;;;;;;7.57;3.40;;;;;;;-9.96;69.47;99937.99;1713366;82;20915;-49
2021/12/22 02:38:44;;;;;;;6.90;2.40;;;;;;;-9.99;69.56;99939.17;1723538;82;20895;-50
2021/12/22 02:41:13;;;;;;;7.90;2.10;;;;;;;-10.01;69.48;99939.94;1727456;82;20856;-50
2021/12/22 02:43:50;;;;;;;9.07;2.63;;;;;;;-10.05;69.48;99940.27;1720828;82;21057;-51
2021/12/22 02:46:13;;;;;;;5.53;2.07;;;;;;;-10.09;69.42;99935.77;1722353;82;21041;-49
2021/12/22 02:48:41;;;;;;;7.77;2.20;;;;;;;-10.09;69.54;99946.59;1722400;82;21096;-50
2021/12/22 02:51:08;;;;;;;5.50;2.13;;;;;;;-10.10;69.51;99945.70;1727359;82;20894;-50
2021/12/22 02:53:45;;;;;;;7.37;1.77;;;;;;;-10.11;69.54;99947.83;1722656;82;20959;-50
2021/12/22 02:56:25;;;;;;;4.87;1.97;;;;;;;-10.11;69.54;99948.24;1723063;82;20970;-49
2021/12/22 02:58:46;;;;;;;7.63;1.87;;;;;;;-10.15;69.51;99948.56;1719133;82;20986;-49
2021/12/22 03:06:24;;;;;;;6.20;1.70;;;;;;;-10.19;69.55;99958.41;1723428;82;20942;-50
2021/12/22 03:08:45;;;;;;;7.07;2.10;;;;;;;-10.20;69.36;99965.74;1722494;82;21041;-50
2021/12/22 03:11:11;;;;;;;7.00;1.90;;;;;;;-10.21;69.45;99964.41;1718447;82;21120;-49
2021/12/22 03:13:37;;;;;;;6.77;2.10;;;;;;;-10.21;69.42;99961.81;1722362;82;22545;-49
2021/12/22 03:16:04;;;;;;;7.30;1.97;;;;;;;-10.22;69.35;99968.73;1719856;82;21683;-50
2021/12/22 03:18:33;;;;;;;5.33;2.03;;;;;;;-10.24;69.26;99974.28;1732608;82;20890;-50
2021/12/22 03:21:09;;;;;;;5.87;1.80;;;;;;;-10.26;69.17;99972.03;1725545;82;20915;-50
2021/12/22 03:23:27;;;;;;;5.17;1.40;;;;;;;-10.29;69.20;99973.66;1726431;82;20983;-51
2021/12/22 03:25:53;;;;;;;8.53;1.97;;;;;;;-10.30;69.26;99977.97;1722645;82;21092;-52
2021/12/22 03:28:21;;;;;;;6.20;1.83;;;;;;;-10.27;69.28;99968.95;1721334;82;21101;-49
2021/12/22 03:30:48;;;;;;;5.67;1.33;;;;;;;-10.29;69.17;99981.46;1721234;82;21124;-49
2021/12/22 03:33:15;;;;;;;3.53;1.43;;;;;;;-10.31;69.25;99976.61;1719890;82;21121;-50
2021/12/22 03:35:41;;;;;;;4.93;1.27;;;;;;;-10.32;69.21;99977.42;1717053;81;21037;-50
2021/12/22 03:38:07;;;;;;;5.83;1.63;;;;;;;-10.34;69.18;99976.95;1717363;82;21738;-50
2021/12/22 03:40:34;;;;;;;8.40;1.37;;;;;;;-10.37;69.07;99985.05;1715763;82;21488;-49
2021/12/22 03:43:00;;;;;;;5.33;1.67;;;;;;;-10.39;69.24;99988.92;1716084;82;21565;-49
2021/12/22 03:45:26;;;;;;;5.77;1.33;;;;;;;-10.39;69.14;99986.31;1722536;82;21085;-49
2021/12/22 03:47:53;;;;;;;4.83;1.57;;;;;;;-10.41;69.17;99994.47;1717198;82;21157;-49
2021/12/22 03:50:19;;;;;;;8.50;1.43;;;;;;;-10.42;69.07;100007.00;1715626;82;21140;-50
2021/12/22 03:52:49;;;;;;;5.67;1.23;;;;;;;-10.46;69.07;100005.09;1721587;82;20978;-49
2021/12/22 03:55:15;;;;;;;6.97;2.00;;;;;;;-10.45;69.18;100011.19;1721822;82;21041;-49
2021/12/22 03:57:43;;;;;;;7.63;1.50;;;;;;;-10.43;69.25;100014.74;1719620;82;21081;-49
2021/12/22 04:00:11;;;;;;;6.73;1.40;;;;;;;-10.41;69.23;100017.00;1716875;82;21151;-49
2021/12/22 04:02:38;;;;;;;5.27;1.40;;;;;;;-10.42;69.20;100019.13;1718327;80;21143;-49
2021/12/22 04:05:05;;;;;;;4.27;2.03;;;;;;;-10.42;69.33;100011.31;1720878;82;20962;-49
2021/12/22 04:07:33;;;;;;;4.70;1.67;;;;;;;-10.43;69.31;100014.74;1720956;82;20952;-50
2021/12/22 04:09:59;;;;;;;5.80;1.60;;;;;;;-10.40;69.40;100015.77;1716769;82;20954;-48
2021/12/22 04:12:26;;;;;;;4.43;1.10;;;;;;;-10.39;69.39;100024.05;1718786;82;21121;-49
2021/12/22 04:14:52;;;;;;;4.43;1.57;;;;;;;-10.36;69.53;100016.75;1717420;82;21101;-49
2021/12/22 04:17:19;;;;;;;8.23;1.27;;;;;;;-10.31;69.62;100019.55;1715326;82;21092;-49
2021/12/22 04:19:45;;;;;;;4.67;1.37;;;;;;;-10.26;69.65;100018.88;1714518;80;21097;-50
2021/12/22 04:22:11;;;;;;;7.70;1.80;;;;;;;-10.22;69.76;100029.91;1715613;82;21061;-49
2021/12/22 04:24:38;;;;;;;3.10;1.10;;;;;;;-10.17;69.72;100023.55;1716966;82;21050;-50
2021/12/22 04:27:04;;;;;;;2.60;0.90;;;;;;;-10.16;69.72;100030.09;1717101;82;21128;-51
2021/12/22 04:29:31;;;;;;;6.60;1.30;;;;;;;-10.13;69.76;100030.63;1720398;82;21667;-51
2021/12/22 04:31:57;;;;;;;6.43;1.30;;;;;;;-10.13;69.84;100030.63;1719424;82;21121;-50
2021/12/22 04:34:24;;;;;;;4.27;1.00;;;;;;;-10.09;69.90;100031.20;1715306;82;21073;-51
2021/12/22 04:36:50;;;;;;;3.93;0.90;;;;;;;-10.07;69.88;100028.25;1716669;80;21345;-49
2021/12/22 04:39:18;;;;;;;2.03;0.90;;;;;;;-10.05;69.89;100038.31;1717998;82;21484;-50
2021/12/22 04:41:44;;;;;;;5.10;0.90;;;;;;;-10.06;69.85;100034.83;1719762;82;21518;-50
2021/12/22 04:44:11;;;;;;;4.80;1.00;;;;;;;-10.06;69.92;100033.52;1717840;82;21035;-50
2021/12/22 04:46:37;;;;;;;2.97;1.00;;;;;;;-10.04;69.94;100034.89;1715858;82;21045;-49
2021/12/22 04:49:04;;;;;;;2.63;1.00;;;;;;;-10.03;69.93;100036.63;1718843;82;21155;-51
2021/12/22 04:51:32;;;;;;;2.57;0.83;;;;;;;-10.03;69.89;100040.13;1721261;82;22282;-50
2021/12/22 04:54:07;;;;;;;6.50;1.00;;;;;;;-10.00;69.86;100049.78;1719060;82;21045;-51
2021/12/22 04:56:30;;;;;;;7.27;1.20;;;;;;;-10.00;69.78;100051.08;1723226;81;20923;-51
2021/12/22 04:58:57;;;;;;;6.10;1.10;;;;;;;-10.02;69.87;100058.83;1721630;82;20926;-49
2021/12/22 05:01:24;;;;;;;3.67;1.23;;;;;;;-10.00;69.88;100063.69;1721099;82;20935;-49
2021/12/22 05:03:50;;;;;;;3.17;0.97;;;;;;;-9.97;69.94;100053.40;1722424;80;21132;-49
2021/12/22 05:06:16;;;;;;;6.40;1.03;;;;;;;-9.92;69.87;100051.36;1724195;82;21354;-49
2021/12/22 05:08:43;;;;;;;4.07;1.10;;;;;;;-9.89;69.82;100054.09;1721265;82;20930;-50
2021/12/22 05:11:10;;;;;;;2.40;0.97;;;;;;;-9.87;69.76;100055.94;1722605;82;21004;-50
2021/12/22 05:13:36;;;;;;;3.63;0.80;;;;;;;-9.90;69.57;100058.42;1721282;82;21603;-50
2021/12/22 05:16:05;;;;;;;2.20;0.87;;;;;;;-9.92;69.60;100056.58;1721791;82;21105;-49
2021/12/22 05:18:56;;;;;;;3.83;0.80;;;;;;;-9.94;69.59;100060.00;1727826;82;20879;-50
2021/12/22 05:21:03;;;;;;;3.93;0.80;;;;;;;-9.96;69.59;100060.38;1715625;81;20987;-51
2021/12/22 05:23:31;;;;;;;3.87;0.87;;;;;;;-9.98;69.54;100063.34;1720896;82;20910;-50
2021/12/22 05:25:57;;;;;;;4.00;0.87;;;;;;;-10.01;69.38;100064.52;1723530;82;20879;-49
2021/12/22 05:28:24;;;;;;;3.60;1.10;;;;;;;-10.03;69.35;100073.08;1721844;82;21401;-50
2021/12/22 05:30:50;;;;;;;3.37;1.50;;;;;;;-10.06;69.43;100075.18;1723619;82;20895;-50
2021/12/22 05:33:16;;;;;;;1.90;0.77;;;;;;;-10.04;69.42;100085.25;1723482;82;21401;-50
2021/12/22 05:35:42;;;;;;;4.27;1.00;;;;;;;-10.01;69.42;100085.34;1720768;82;21152;-51
2021/12/22 05:38:09;;;;;;;2.13;0.90;;;;;;;-9.96;69.41;100088.14;1725532;82;21428;-50
2021/12/22 05:40:36;;;;;;;2.77;0.90;;;;;;;-9.94;69.35;100078.64;1725880;82;21851;-50
2021/12/22 05:43:02;;;;;;;2.83;0.80;;;;;;;-9.90;69.32;100086.17;1729162;81;20947;-50
2021/12/22 05:45:30;;;;;;;3.30;1.20;;;;;;;-9.87;69.29;100083.70;1725294;82;21006;-50
2021/12/22 05:47:56;;;;;;;2.97;0.90;;;;;;;-9.86;69.12;100085.03;1722599;81;20919;-50
2021/12/22 05:50:23;;;;;;;5.07;1.30;;;;;;;-9.87;69.11;100085.00;1721187;82;21065;-50
2021/12/22 05:52:50;;;;;;;1.60;0.90;;;;;;;-9.88;69.10;100095.83;1727463;82;21423;-50
2021/12/22 05:55:16;;;;;;;2.60;1.00;;;;;;;-9.90;69.12;100094.87;1723069;82;20955;-50
2021/12/22 05:57:44;;;;;;;3.00;1.00;;;;;;;-9.89;69.17;100097.06;1720269;82;21057;-50
2021/12/22 06:00:12;;;;;;;5.00;2.30;;;;;;;-9.90;69.13;100107.01;1723616;82;21408;-50
2021/12/22 06:02:38;;;;;;;3.03;0.73;;;;;;;-9.89;69.21;100105.77;1722629;80;21049;-50
2021/12/22 06:05:06;;;;;;;1.77;0.70;;;;;;;-9.90;69.17;100109.61;1721058;82;21854;-50
2021/12/22 06:07:34;;;;;;;2.33;0.70;;;;;;;-9.92;69.18;100111.27;1717714;82;21107;-51
2021/12/22 06:10:00;;;;;;;4.70;0.73;;;;;;;-9.93;69.22;100118.19;1723359;82;21067;-51
2021/12/22 06:12:26;;;;;;;1.60;0.67;;;;;;;-9.94;69.29;100119.02;1727245;82;21117;-50
2021/12/22 06:14:53;;;;;;;1.67;0.70;;;;;;;-9.92;69.35;100129.49;1720570;82;21119;-51
2021/12/22 06:17:19;;;;;;;3.07;0.90;;;;;;;-9.90;69.32;100129.14;1719642;82;21113;-50
2021/12/22 06:19:45;;;;;;;3.20;0.60;;;;;;;-9.90;69.34;100133.05;1730011;82;21044;-50
2021/12/22 06:22:11;;;;;;;2.17;0.67;;;;;;;-9.88;69.36;100135.31;1714523;82;21065;-50
2021/12/22 06:24:38;;;;;;;1.73;0.80;;;;;;;-9.86;69.38;100140.14;1720574;82;21042;-51
2021/12/22 06:27:06;;;;;;;2.93;1.13;;;;;;;-9.88;69.46;100137.91;1724039;81;21038;-50
2021/12/22 06:29:33;;;;;;;3.50;0.80;;;;;;;-9.85;69.50;100143.22;1725073;82;22858;-50
2021/12/22 06:31:59;;;;;;;1.40;0.80;;;;;;;-9.82;69.49;100146.84;1718963;82;21120;-51
2021/12/22 06:34:25;;;;;;;2.50;0.60;;;;;;;-9.80;69.43;100153.42;1716527;82;21096;-51
2021/12/22 06:36:52;;;;;;;4.37;0.80;;;;;;;-9.79;69.54;100155.20;1729843;81;21347;-50
2021/12/22 06:39:18;;;;;;;3.53;0.70;;;;;;;-9.75;69.60;100154.48;1737854;81;21313;-51
2021/12/22 06:41:47;;;;;;;3.50;1.43;;;;;;;-9.70;69.53;100159.47;1736058;81;21166;-51
2021/12/22 06:44:14;;;;;;;3.90;1.00;;;;;;;-9.68;69.44;100168.20;1737664;81;21076;-51
2021/12/22 06:46:42;;;;;;;4.33;1.10;;;;;;;-9.66;69.42;100167.86;1736006;81;21046;-50
2021/12/22 06:49:10;;;;;;;4.87;1.20;;;;;;;-9.64;69.36;100168.40;1737362;81;21714;-50
2021/12/22 06:51:37;;;;;;;3.50;0.80;;;;;;;-9.62;69.42;100171.07;1739677;81;20935;-50
2021/12/22 06:54:04;;;;;;;3.43;0.90;;;;;;;-9.57;69.57;100173.42;1737766;81;21090;-50
2021/12/22 06:56:30;;;;;;;2.83;0.90;;;;;;;-9.49;69.60;100177.20;1733881;81;21090;-51
2021/12/22 06:58:57;;;;;;;2.90;1.17;;;;;;;-9.39;69.52;100178.45;1733339;81;21114;-51
2021/12/22 07:01:24;;;;;;;3.73;1.00;;;;;;;-9.32;69.44;100175.23;1731982;81;21098;-51
2021/12/22 07:03:50;;;;;;;5.60;1.27;;;;;;;-9.26;69.29;100180.66;1731775;81;21067;-50
2021/12/22 07:06:17;;;;;;;2.73;1.00;;;;;;;-9.19;69.13;100180.09;1733032;81;21110;-51
2021/12/22 07:08:43;;;;;;;5.73;1.57;;;;;;;-9.14;68.94;100178.52;1731896;81;21103;-51
2021/12/22 07:11:09;;;;;;;2.87;0.93;;;;;;;-9.07;68.85;100180.92;1733795;81;21026;-51
2021/12/22 07:13:36;;;;;;;4.90;1.10;;;;;;;-9.01;68.83;100182.44;1731099;81;21085;-50
2021/12/22 07:16:03;;;;;;;3.87;0.90;;;;;;;-8.96;68.70;100193.95;1736168;81;21094;-50
2021/12/22 07:18:31;;;;;;;5.00;1.13;;;;;;;-8.90;68.39;100190.25;1736156;81;21122;-49
2021/12/22 07:20:59;;;;;;;3.07;0.80;;;;;;;-8.91;67.77;100185.86;1736269;81;20943;-49
2021/12/22 07:23:26;;;;;;;2.53;0.90;;;;;;;-8.93;67.67;100184.94;1739239;81;20959;-50
2021/12/22 07:25:52;;;;;;;4.67;1.00;;;;;;;-8.95;67.60;100183.58;1735903;81;21007;-50
2021/12/22 07:28:18;;;;;;;3.80;1.03;;;;;;;-8.96;67.67;100183.11;1734312;81;21065;-51
2021/12/22 07:30:45;;;;;;;2.87;0.80;;;;;;;-8.94;67.49;100180.55;1733928;81;22911;-50
2021/12/22 07:33:11;;;;;;;2.03;0.60;;;;;;;-8.94;67.34;100188.38;1734998;81;21173;-50
2021/12/22 07:35:54;;;;;;;2.90;0.70;;;;;;;-8.93;67.16;100190.16;1736696;81;22146;-51
2021/12/22 07:38:31;;;;;;;;;;;;;;;-8.89;67.02;100201.16;1747837;81;21050;-50
2021/12/22 07:40:59;;;;;;;4.13;0.60;;;;;;;-8.89;66.72;100197.25;1731655;81;20457;-51
2021/12/22 07:43:26;;;;;;;2.73;0.83;;;;;;;-8.88;66.57;100195.11;1733425;81;21104;-50
2021/12/22 07:45:53;;;;;;;1.77;0.60;;;;;;;-8.85;66.43;100200.03;1744545;81;21073;-50
2021/12/22 07:48:19;;;;;;;2.67;0.80;;;;;;;-8.80;66.03;100199.77;1736513;81;21461;-51
2021/12/22 07:50:46;;;;;;;2.50;0.70;;;;;;;-8.82;65.62;100196.63;1740552;81;21341;-50
2021/12/22 07:53:12;;;;;;;3.33;0.60;;;;;;;-8.84;65.79;100201.78;1740640;81;21098;-50
2021/12/22 07:55:39;;;;;;;2.17;0.70;;;;;;;-8.83;65.66;100200.06;1739549;81;21768;-50
2021/12/22 07:58:07;;;;;;;2.57;0.60;;;;;;;-8.85;65.50;100193.52;1731796;81;21505;-51
2021/12/22 08:00:34;;;;;;;2.00;0.60;;;;;;;-8.82;65.57;100196.63;1737842;81;21030;-50
2021/12/22 08:03:01;;;;;;;2.57;0.70;;;;;;;-8.78;65.62;100198.94;1743180;81;20880;-50
2021/12/22 08:05:27;;;;;;;2.00;0.70;;;;;;;-8.76;65.39;100192.92;1742798;81;20987;-50
2021/12/22 08:07:54;;;;;;;3.77;0.70;;;;;;;-8.74;65.24;100198.20;1735896;81;21708;-51
2021/12/22 08:10:21;;;;;;;1.27;0.60;;;;;;;-8.73;65.24;100202.17;1741671;81;20904;-51
2021/12/22 08:12:47;;;;;;;1.70;0.60;;;;;;;-8.68;64.88;100199.33;1740060;81;21351;-50
2021/12/22 08:15:15;;;;;;;1.30;0.53;;;;;;;-8.66;64.78;100193.72;1737477;81;21580;-51
2021/12/22 08:17:43;;;;;;;1.50;0.53;;;;;;;-8.67;64.66;100198.88;1734016;81;21098;-50
2021/12/22 08:20:11;;;;;;;1.73;0.50;;;;;;;-8.72;64.23;100201.76;1735016;81;21057;-50
2021/12/22 08:22:38;;;;;;;1.73;0.67;;;;;;;-8.75;64.59;100201.22;1737146;81;20939;-51
2021/12/22 08:25:06;;;;;;;2.50;0.60;;;;;;;-8.76;64.33;100205.11;1741873;81;20928;-51
2021/12/22 08:27:33;;;;;;;1.40;0.57;;;;;;;-8.80;64.16;100204.10;1743855;80;20938;-52
2021/12/22 08:30:00;;;;;;;1.83;0.50;;;;;;;-8.82;64.29;100207.06;1746075;80;21520;-51
2021/12/22 08:32:26;;;;;;;1.43;0.73;;;;;;;-8.81;64.26;100214.06;1736561;81;21116;-49
2021/12/22 08:34:55;;;;;;;0.90;0.50;;;;;;;-8.80;63.81;100212.81;1732864;81;21094;-50
2021/12/22 08:40:10;;;;;;;1.33;0.50;;;;;;;-8.83;63.48;100210.50;1717630;82;21050;-50
2021/12/22 08:42:37;;;;;;;0.80;0.50;;;;;;;-8.82;63.65;100208.37;1722045;82;20958;-50
2021/12/22 08:45:04;;;;;;;1.27;0.40;;;;;;;-8.79;63.61;100212.41;1724212;82;22366;-51
2021/12/22 08:47:30;;;;;;;1.63;0.60;;;;;;;-8.76;63.63;100210.33;1719666;82;22345;-51
2021/12/22 08:52:42;;;;;;;0.83;0.40;;;;;;;-8.70;63.47;100207.92;1792181;78;24428;-51
2021/12/22 08:55:09;;;;;;;2.10;0.50;;;;;;;-8.76;63.67;100210.33;1767989;80;21112;-50
2021/12/22 08:57:36;;;;;;;1.37;0.60;;;;;;;-8.74;63.35;100206.92;1745516;79;21316;-51
2021/12/22 09:00:09;;;;;;;1.47;0.43;;;;;;;-8.71;63.09;100200.52;1752601;80;21800;-51
2021/12/22 09:02:36;;;;;;;2.40;1.03;;;;;;;-8.65;63.11;100205.94;1729590;81;20931;-50
2021/12/22 09:05:04;;;;;;;1.20;0.60;;;;;;;-8.58;62.75;100204.01;1744444;81;20922;-50
2021/12/22 09:07:30;;;;;;;1.00;0.40;;;;;;;-8.53;62.58;100203.77;1738037;80;21053;-51
2021/12/22 09:09:57;;;;;;;1.70;0.60;;;;;;;-8.48;62.49;100209.13;1733072;80;21130;-52
2021/12/22 09:12:26;;;;;;;1.63;0.60;;;;;;;-8.50;62.31;100212.09;1742611;81;20914;-52
2021/12/22 09:14:51;;;;;;;3.40;0.60;;;;;;;-8.46;62.09;100212.28;1740210;81;21625;-52
2021/12/22 09:17:18;;;;;;;3.27;0.60;;;;;;;-8.47;62.09;100217.03;1738825;80;21109;-52
2021/12/22 09:19:44;;;;;;;1.83;0.50;;;;;;;-8.44;62.17;100209.73;1734099;80;21072;-50
2021/12/22 09:22:10;;;;;;;2.80;0.60;;;;;;;-8.36;62.38;100213.91;1741174;80;21199;-50
2021/12/22 09:24:36;;;;;;;1.90;0.50;;;;;;;-8.27;62.35;100210.27;1737105;80;21040;-51
2021/12/22 09:27:03;;;;;;;2.63;0.57;;;;;;;-8.22;62.23;100202.16;1749633;81;21021;-52
2021/12/22 09:29:30;;;;;;;1.00;0.60;;;;;;;-8.15;62.33;100212.85;1744806;81;20961;-50
2021/12/22 09:31:57;;;;;;;2.67;0.50;;;;;;;-8.07;62.20;100206.16;1739089;80;21061;-50
2021/12/22 09:34:23;;;;;;;3.40;0.60;;;;;;;-7.98;62.14;100202.06;1740398;80;21640;-50
2021/12/22 09:36:50;;;;;;;2.73;0.70;;;;;;;-7.90;61.95;100196.67;1746900;80;21085;-51
2021/12/22 09:39:16;;;;;;;2.63;0.80;;;;;;;-7.83;62.05;100190.41;1740280;80;21053;-50
2021/12/22 09:41:43;;;;;;;3.93;0.80;;;;;;;-7.73;62.13;100189.83;1742882;80;21124;-52
2021/12/22 09:44:09;;;;;;;2.40;1.27;;;;;;;-7.63;62.14;100184.48;1739130;80;21402;-51
2021/12/22 09:46:39;;;;;;;4.67;0.77;;;;;;;-7.60;61.82;100191.53;1740212;80;21350;-51
2021/12/22 09:49:20;;;;;;;1.30;0.60;;;;;;;-7.65;61.99;100183.53;1738670;80;21053;-51
2021/12/22 09:54:04;;;;;;;1.37;0.73;;;;;;;-7.63;62.29;100177.94;1723357;80;21158;-51
2021/12/22 09:56:33;;;;;;;3.63;0.90;;;;;;;-7.59;62.38;100179.83;1726985;80;21005;-52
2021/12/22 09:58:59;;;;;;;2.33;0.80;;;;;;;-7.53;62.23;100181.73;1726225;81;23256;-52
2021/12/22 10:01:25;;;;;;;2.90;0.80;;;;;;;-7.48;61.95;100181.43;1725049;81;21093;-52
2021/12/22 10:03:53;;;;;;;3.83;0.80;;;;;;;-7.44;62.15;100175.05;1727400;80;21413;-52
2021/12/22 10:06:19;;;;;;;3.97;0.80;;;;;;;-7.35;62.23;100170.09;1727250;81;21168;-53
2021/12/22 10:08:52;;;;;;;4.00;0.83;;;;;;;-7.28;62.39;100173.35;1721655;81;21366;-52
2021/12/22 10:11:20;;;;;;;1.90;0.60;;;;;;;-7.20;62.26;100173.99;1729466;80;21042;-52
2021/12/22 10:13:48;;;;;;;1.30;1.07;;;;;;;-7.18;61.97;100169.28;1730727;81;21087;-52
2021/12/22 10:16:26;;;;;;;5.17;0.80;;;;;;;-7.15;61.83;100171.11;1726747;81;21098;-52
2021/12/22 10:19:08;;;;;;;1.97;0.80;;;;;;;-7.17;61.77;100171.06;1726109;81;21362;-50
2021/12/22 10:21:36;;;;;;;3.27;0.80;;;;;;;-7.13;61.84;100168.98;1733822;80;21046;-51
2021/12/22 10:24:06;;;;;;;1.47;0.70;;;;;;;-7.09;61.76;100168.66;1733234;81;22024;-50
2021/12/22 10:26:33;;;;;;;2.07;0.70;;;;;;;-7.11;61.50;100167.30;1709533;82;20944;-53
2021/12/22 10:29:04;;;;;;;3.07;0.80;;;;;;;-7.16;61.46;100163.68;1727533;80;21078;-51
2021/12/22 10:31:43;;;;;;;5.43;1.63;;;;;;;-7.17;61.40;100170.17;1735701;81;21115;-50
2021/12/22 10:34:16;;;;;;;3.00;0.80;;;;;;;-7.13;61.61;100161.12;1732206;81;21617;-50
2021/12/22 10:36:52;;;;;;;2.67;0.77;;;;;;;-7.05;61.56;100158.30;1726067;81;21133;-51
2021/12/22 10:39:32;;;;;;;;;;;;;;;-6.97;61.47;100158.52;1730696;80;21137;-51
2021/12/22 10:42:07;;;;;;;1.20;0.70;;;;;;;-6.94;61.62;100158.19;1722815;81;20123;-50
2021/12/22 10:44:40;;;;;;;3.47;0.80;;;;;;;-6.91;61.39;100162.64;1725886;81;20963;-50
2021/12/22 10:47:21;;;;;;;3.33;0.70;;;;;;;-6.91;61.31;100155.67;1729322;81;21105;-50
2021/12/22 10:50:01;;;;;;;4.50;0.70;;;;;;;-6.95;61.37;100159.03;1724916;80;22200;-49
2021/12/22 10:52:30;;;;;;;1.83;0.60;;;;;;;-6.98;61.45;100166.82;1724276;81;21100;-50
2021/12/22 10:55:08;;;;;;;1.60;0.70;;;;;;;-7.00;61.43;100171.54;1726110;81;20955;-50
2021/12/22 10:57:37;;;;;;;2.27;0.73;;;;;;;-7.04;61.30;100168.35;1734298;80;20942;-51
2021/12/22 11:00:22;;;;;;;1.30;0.60;;;;;;;-7.06;61.46;100171.38;1728073;81;21038;-50
2021/12/22 11:03:13;;;;;;;2.93;0.60;;;;;;;-7.08;61.48;100168.70;1726224;81;21260;-51
2021/12/22 11:05:47;;;;;;;3.40;0.60;;;;;;;-7.12;61.25;100162.02;1733951;80;20954;-51
2021/12/22 11:08:24;;;;;;;1.67;0.70;;;;;;;-7.15;61.37;100166.77;1733364;81;21002;-50
2021/12/22 11:10:52;;;;;;;1.47;0.70;;;;;;;-7.18;61.10;100172.31;1734294;81;21420;-50
2021/12/22 11:13:24;;;;;;;2.67;0.60;;;;;;;-7.20;61.35;100171.38;1731010;81;21400;-50
2021/12/22 11:15:53;;;;;;;2.33;0.67;;;;;;;-7.20;61.29;100166.14;1730616;80;21423;-50
2021/12/22 11:18:27;;;;;;;1.83;0.70;;;;;;;-7.19;61.59;100177.08;1728850;81;20931;-51
2021/12/22 11:21:07;;;;;;;;;;;;;;;-7.20;61.69;100164.84;1729027;81;20922;-50
2021/12/22 11:23:34;;;;;;;1.93;0.70;;;;;;;-7.21;61.83;100172.22;1698883;83;20137;-49
2021/12/22 11:26:01;;;;;;;2.57;0.70;;;;;;;-7.22;61.97;100175.66;1697830;83;20887;-50
2021/12/22 11:28:28;;;;;;;1.20;0.70;;;;;;;-7.28;61.98;100168.54;1731975;82;22290;-50
2021/12/22 11:30:56;;;;;;;1.30;0.77;;;;;;;-7.29;62.26;100166.77;1730287;81;20942;-49
2021/12/22 11:33:24;;;;;;;1.33;0.60;;;;;;;-7.24;62.27;100168.22;1731408;80;20883;-50
2021/12/22 11:35:50;;;;;;;2.60;0.63;;;;;;;-7.22;62.34;100170.02;1732905;81;20963;-50
2021/12/22 11:38:17;;;;;;;2.80;0.73;;;;;;;-7.18;62.27;100170.59;1723382;81;21088;-50
2021/12/22 11:40:53;;;;;;;2.07;0.70;;;;;;;-7.14;62.22;100169.81;1725222;81;21149;-50
2021/12/22 11:43:11;;;;;;;2.00;1.00;;;;;;;-7.11;62.01;100159.88;1725597;81;21061;-51
2021/12/22 11:45:38;;;;;;;3.13;0.50;;;;;;;-7.08;62.03;100165.20;1729107;81;21033;-52
2021/12/22 11:48:05;;;;;;;2.60;0.70;;;;;;;-7.13;61.80;100158.52;1725794;81;21653;-51
2021/12/22 11:50:34;;;;;;;2.73;0.60;;;;;;;-7.19;61.61;100165.30;1721791;81;21137;-51
2021/12/22 11:53:05;;;;;;;1.53;0.67;;;;;;;-7.31;61.54;100161.90;1730369;81;22935;-51
2021/12/22 11:55:44;;;;;;;4.13;0.80;;;;;;;-7.44;61.58;100157.16;1732608;80;20979;-51